Time;durP1;ratioP1;P1;durP2;ratioP2;P2;SDS_P1;SDS_P2;PMS_P1;PMS_P2;Temp;Humidity;BMP_temperature;BMP_pressure;BME280_temperature;BME280_humidity;BME280_pressure;Samples;Min_cycle;Max_cycle;Signal;HPM_P1;HPM_P2
2023/01/20 00:00:49;;;;;;;30.27;17.85;;;;;;;;;;4983162;28;20069;-78
2023/01/20 00:03:15;;;;;;;23.38;12.55;;;;;;;;;;4984137;28;20038;-79
2023/01/20 00:05:49;;;;;;;26.33;15.25;;;;;;;;;;4981133;28;20034;-79
2023/01/20 00:08:16;;;;;;;24.25;14.35;;;;;;;;;;4983885;28;20105;-78
2023/01/20 00:10:42;;;;;;;25.73;14.63;;;;;;;;;;4982134;28;20026;-80
2023/01/20 00:13:09;;;;;;;22.98;14.32;;;;;;;;;;4981494;28;20026;-79
2023/01/20 00:15:34;;;;;;;26.98;14.70;;;;;;;;;;4982015;28;20038;-79
2023/01/20 00:18:02;;;;;;;21.88;9.90;;;;;;;;;;4983003;28;20018;-78
2023/01/20 00:20:27;;;;;;;15.65;7.63;;;;;;;;;;4983309;28;20026;-78
2023/01/20 00:22:53;;;;;;;16.08;6.85;;;;;;;;;;4983123;28;20030;-79
2023/01/20 00:25:19;;;;;;;20.35;7.43;;;;;;;;;;4981778;28;20562;-79
2023/01/20 00:27:45;;;;;;;14.00;8.20;;;;;;;;;;4983104;28;20109;-79
2023/01/20 00:30:11;;;;;;;20.02;9.48;;;;;;;;;;4977096;28;20298;-79
2023/01/20 00:32:38;;;;;;;22.42;11.05;;;;;;;;;;4961822;28;20501;-79
2023/01/20 00:35:05;;;;;;;29.58;13.40;;;;;;;;;;4963398;28;20049;-79
2023/01/20 00:37:34;;;;;;;27.77;14.02;;;;;;;;;;4961646;28;20110;-77
2023/01/20 00:40:00;;;;;;;35.47;20.45;;;;;;;;;;4961978;28;20058;-78
2023/01/20 00:42:25;;;;;;;44.55;29.13;;;;;;;;;;4964071;28;20132;-75
2023/01/20 00:44:51;;;;;;;38.28;22.30;;;;;;;;;;4964232;28;20185;-78
2023/01/20 00:47:19;;;;;;;26.20;13.80;;;;;;;;;;4976612;28;20049;-78
2023/01/20 00:49:45;;;;;;;22.60;11.93;;;;;;;;;;4980611;28;20235;-78
2023/01/20 00:52:10;;;;;;;25.92;13.32;;;;;;;;;;4982713;28;20030;-78
2023/01/20 00:54:36;;;;;;;26.65;14.65;;;;;;;;;;4980506;28;20026;-78
2023/01/20 00:57:01;;;;;;;26.48;15.30;;;;;;;;;;4982558;28;20057;-77
2023/01/20 00:59:26;;;;;;;27.98;15.45;;;;;;;;;;4982245;28;20554;-77
2023/01/20 01:01:51;;;;;;;30.33;19.05;;;;;;;;;;4982907;28;20083;-78
2023/01/20 01:04:19;;;;;;;37.00;24.75;;;;;;;;;;4980701;28;20466;-78
2023/01/20 01:06:44;;;;;;;31.92;22.85;;;;;;;;;;4982226;28;20526;-78
2023/01/20 01:09:10;;;;;;;35.95;23.60;;;;;;;;;;4981082;28;20290;-78
2023/01/20 01:11:35;;;;;;;39.45;24.95;;;;;;;;;;4982411;28;20030;-78
2023/01/20 01:14:00;;;;;;;37.85;27.25;;;;;;;;;;4991724;28;20026;-78
2023/01/20 01:16:26;;;;;;;41.05;26.55;;;;;;;;;;5001928;28;20032;-75
2023/01/20 01:18:52;;;;;;;30.42;18.08;;;;;;;;;;5003737;28;20052;-75
2023/01/20 01:21:17;;;;;;;30.48;14.90;;;;;;;;;;5001216;28;20022;-76
2023/01/20 01:23:42;;;;;;;18.30;10.60;;;;;;;;;;5003470;28;20030;-75
2023/01/20 01:26:08;;;;;;;13.43;6.63;;;;;;;;;;5002197;28;20120;-75
2023/01/20 01:28:34;;;;;;;17.75;6.40;;;;;;;;;;4985359;28;20083;-75
2023/01/20 01:31:02;;;;;;;16.52;6.80;;;;;;;;;;4988318;28;20030;-75
2023/01/20 01:33:28;;;;;;;12.23;6.47;;;;;;;;;;4983385;28;20030;-75
2023/01/20 01:36:00;;;;;;;14.55;6.38;;;;;;;;;;4982388;28;20034;-75
2023/01/20 01:38:28;;;;;;;17.15;6.63;;;;;;;;;;4983395;28;20458;-75
2023/01/20 01:40:54;;;;;;;16.90;8.13;;;;;;;;;;4982977;28;20042;-75
2023/01/20 01:43:20;;;;;;;19.65;9.73;;;;;;;;;;4982328;28;20061;-76
2023/01/20 01:45:48;;;;;;;15.45;8.13;;;;;;;;;;4984947;28;20018;-75
2023/01/20 01:48:14;;;;;;;22.17;6.72;;;;;;;;;;5003081;28;20011;-76
2023/01/20 01:50:59;;;;;;;13.90;6.25;;;;;;;;;;5001520;28;20036;-76
2023/01/20 01:53:26;;;;;;;16.05;7.13;;;;;;;;;;5002724;28;20165;-79
2023/01/20 01:55:54;;;;;;;21.25;9.48;;;;;;;;;;5002720;28;20273;-77
2023/01/20 01:58:22;;;;;;;24.25;12.27;;;;;;;;;;5002527;28;20105;-77
2023/01/20 02:00:48;;;;;;;24.58;13.20;;;;;;;;;;5002031;28;20057;-79
2023/01/20 02:03:13;;;;;;;23.90;13.32;;;;;;;;;;5002520;28;20018;-79
2023/01/20 02:05:40;;;;;;;29.67;15.57;;;;;;;;;;5000975;28;20023;-75
2023/01/20 02:08:08;;;;;;;32.88;17.92;;;;;;;;;;5003435;28;20026;-78
2023/01/20 02:10:33;;;;;;;31.30;18.98;;;;;;;;;;5002617;28;20034;-79
2023/01/20 02:12:59;;;;;;;38.45;21.17;;;;;;;;;;5003112;28;20026;-77
2023/01/20 02:15:31;;;;;;;48.15;23.98;;;;;;;;;;5002155;28;20033;-77
2023/01/20 02:18:02;;;;;;;63.60;36.15;;;;;;;;;;5004092;28;20210;-78
2023/01/20 02:20:33;;;;;;;55.45;30.15;;;;;;;;;;5004650;28;20022;-78
2023/01/20 02:23:11;;;;;;;62.08;33.25;;;;;;;;;;4988492;28;20239;-78
2023/01/20 02:25:51;;;;;;;70.00;40.03;;;;;;;;;;5004934;28;20030;-75
2023/01/20 02:28:25;;;;;;;65.32;41.40;;;;;;;;;;5006669;28;20030;-78
2023/01/20 02:31:09;;;;;;;70.47;37.13;;;;;;;;;;4988437;28;20027;-76
2023/01/20 02:33:40;;;;;;;66.22;36.13;;;;;;;;;;4987032;28;20486;-75
2023/01/20 02:36:08;;;;;;;63.13;34.95;;;;;;;;;;4985989;28;20492;-75
2023/01/20 02:38:38;;;;;;;60.05;34.67;;;;;;;;;;4986001;28;20047;-75
2023/01/20 02:41:06;;;;;;;66.97;36.50;;;;;;;;;;4986106;28;20561;-75
2023/01/20 02:43:35;;;;;;;63.20;37.03;;;;;;;;;;4984674;28;20022;-75
2023/01/20 02:46:18;;;;;;;75.78;38.22;;;;;;;;;;4988520;28;20042;-75
2023/01/20 02:48:51;;;;;;;69.45;35.90;;;;;;;;;;5004035;28;20085;-75
2023/01/20 02:51:20;;;;;;;60.42;32.83;;;;;;;;;;5005661;28;20099;-75
2023/01/20 02:53:58;;;;;;;65.30;32.58;;;;;;;;;;5006068;28;20510;-75
2023/01/20 02:56:25;;;;;;;55.13;30.77;;;;;;;;;;5005789;28;20099;-77
2023/01/20 02:58:53;;;;;;;62.65;32.60;;;;;;;;;;5003418;28;20044;-77
2023/01/20 03:01:24;;;;;;;67.93;35.20;;;;;;;;;;5005908;28;20087;-78
2023/01/20 03:03:51;;;;;;;65.13;34.67;;;;;;;;;;5005598;28;20494;-78
2023/01/20 03:06:19;;;;;;;67.88;35.80;;;;;;;;;;5005026;28;20050;-77
2023/01/20 03:08:46;;;;;;;69.15;37.97;;;;;;;;;;5003996;28;20037;-77
2023/01/20 03:11:12;;;;;;;66.65;37.17;;;;;;;;;;5003160;28;20030;-77
2023/01/20 03:13:46;;;;;;;64.93;35.65;;;;;;;;;;5005023;28;20502;-78
2023/01/20 03:16:14;;;;;;;61.53;35.63;;;;;;;;;;4998467;28;20311;-77
2023/01/20 03:18:40;;;;;;;67.18;36.90;;;;;;;;;;5004022;28;20030;-76
2023/01/20 03:21:06;;;;;;;70.40;36.22;;;;;;;;;;5005136;28;20152;-77
2023/01/20 03:23:34;;;;;;;64.13;35.08;;;;;;;;;;4987637;28;20498;-78
2023/01/20 03:26:00;;;;;;;62.47;33.20;;;;;;;;;;5005218;28;20084;-77
2023/01/20 03:28:25;;;;;;;62.47;32.78;;;;;;;;;;5004232;28;20030;-78
2023/01/20 03:30:53;;;;;;;55.55;31.67;;;;;;;;;;4985527;28;20480;-78
2023/01/20 03:33:19;;;;;;;55.28;31.30;;;;;;;;;;4983855;28;20034;-77
2023/01/20 03:35:44;;;;;;;57.30;27.10;;;;;;;;;;4984137;28;20026;-78
2023/01/20 03:38:10;;;;;;;34.20;17.45;;;;;;;;;;4985256;28;20049;-75
2023/01/20 03:40:55;;;;;;;22.30;8.07;;;;;;;;;;4983859;28;20352;-76
2023/01/20 03:43:44;;;;;;;19.25;6.90;;;;;;;;;;4982777;28;20019;-76
2023/01/20 03:46:23;;;;;;;22.38;6.20;;;;;;;;;;4987174;28;20073;-75
2023/01/20 03:48:48;;;;;;;12.35;5.15;;;;;;;;;;5002956;28;20075;-75
2023/01/20 03:51:25;;;;;;;21.83;4.00;;;;;;;;;;5003610;28;20030;-75
2023/01/20 03:53:52;;;;;;;22.17;3.90;;;;;;;;;;5003510;28;20037;-76
2023/01/20 03:56:20;;;;;;;13.35;3.03;;;;;;;;;;5003150;28;20029;-78
2023/01/20 03:58:48;;;;;;;14.60;3.08;;;;;;;;;;5003996;28;20483;-77
2023/01/20 04:01:14;;;;;;;15.38;3.60;;;;;;;;;;5004221;28;20505;-76
2023/01/20 04:03:42;;;;;;;15.90;4.38;;;;;;;;;;5004060;28;20037;-75
2023/01/20 04:06:09;;;;;;;18.73;5.03;;;;;;;;;;5004057;28;20045;-75
2023/01/20 04:08:40;;;;;;;13.73;5.22;;;;;;;;;;5003888;28;20160;-74
2023/01/20 04:11:06;;;;;;;14.57;5.55;;;;;;;;;;5002220;28;20022;-76
2023/01/20 04:13:32;;;;;;;12.85;5.80;;;;;;;;;;5002473;28;20030;-75
2023/01/20 04:15:59;;;;;;;13.55;4.82;;;;;;;;;;5004609;28;20030;-75
2023/01/20 04:18:24;;;;;;;14.40;5.35;;;;;;;;;;5002873;28;20428;-76
2023/01/20 04:20:55;;;;;;;18.10;5.40;;;;;;;;;;5002203;28;20033;-75
2023/01/20 04:23:32;;;;;;;18.83;5.68;;;;;;;;;;5002667;28;20037;-75
2023/01/20 04:25:57;;;;;;;18.27;5.30;;;;;;;;;;5003683;28;20030;-75
2023/01/20 04:28:23;;;;;;;17.48;5.40;;;;;;;;;;5001491;28;20036;-74
2023/01/20 04:30:50;;;;;;;13.57;5.03;;;;;;;;;;4983735;28;20073;-74
2023/01/20 04:33:16;;;;;;;14.65;4.45;;;;;;;;;;4983979;28;20567;-75
2023/01/20 04:35:41;;;;;;;10.90;4.07;;;;;;;;;;4982515;28;20122;-73
2023/01/20 04:38:07;;;;;;;6.07;3.25;;;;;;;;;;4982915;28;20057;-74
2023/01/20 04:40:32;;;;;;;9.05;3.88;;;;;;;;;;4983491;28;20045;-74
2023/01/20 04:42:59;;;;;;;12.40;3.92;;;;;;;;;;4984896;28;20035;-74
2023/01/20 04:45:25;;;;;;;10.63;3.53;;;;;;;;;;4984231;28;20026;-74
2023/01/20 04:47:50;;;;;;;12.98;3.70;;;;;;;;;;4984823;28;20048;-74
2023/01/20 04:50:16;;;;;;;9.75;4.03;;;;;;;;;;5001383;28;20037;-74
2023/01/20 04:52:41;;;;;;;9.55;4.18;;;;;;;;;;5003532;28;20037;-75
2023/01/20 04:55:07;;;;;;;8.00;4.63;;;;;;;;;;5001158;28;20026;-74
2023/01/20 04:57:32;;;;;;;11.15;4.20;;;;;;;;;;5002192;28;20026;-74
2023/01/20 05:00:00;;;;;;;10.23;4.28;;;;;;;;;;5001593;28;20114;-74
2023/01/20 05:02:25;;;;;;;13.93;4.50;;;;;;;;;;5003613;28;20151;-74
2023/01/20 05:04:53;;;;;;;13.60;6.30;;;;;;;;;;5003832;28;20072;-74
2023/01/20 05:07:18;;;;;;;17.92;7.03;;;;;;;;;;4985977;28;20034;-74
2023/01/20 05:09:43;;;;;;;26.45;14.98;;;;;;;;;;5003186;28;20046;-74
2023/01/20 05:12:11;;;;;;;37.45;24.98;;;;;;;;;;5002097;28;20430;-74
2023/01/20 05:14:36;;;;;;;34.85;21.70;;;;;;;;;;5003055;28;20026;-74
2023/01/20 05:17:01;;;;;;;32.08;17.20;;;;;;;;;;5001897;28;20052;-74
2023/01/20 05:19:26;;;;;;;32.30;19.30;;;;;;;;;;4985209;28;20110;-73
2023/01/20 05:21:52;;;;;;;42.17;21.35;;;;;;;;;;5003691;28;20108;-74
2023/01/20 05:24:17;;;;;;;37.35;20.88;;;;;;;;;;5003283;28;20026;-73
2023/01/20 05:26:42;;;;;;;27.80;13.80;;;;;;;;;;5003269;28;20037;-74
2023/01/20 05:29:08;;;;;;;26.70;13.13;;;;;;;;;;4993043;28;20047;-76
2023/01/20 05:31:33;;;;;;;22.40;11.23;;;;;;;;;;4988164;28;20041;-76
2023/01/20 05:33:58;;;;;;;23.52;11.00;;;;;;;;;;4970284;28;20400;-78
2023/01/20 05:36:24;;;;;;;28.88;12.77;;;;;;;;;;4987327;28;20050;-75
2023/01/20 05:39:04;;;;;;;28.35;13.90;;;;;;;;;;4984433;28;20094;-76
2023/01/20 05:41:30;;;;;;;26.08;12.88;;;;;;;;;;4987478;28;20471;-76
2023/01/20 05:43:57;;;;;;;28.88;15.57;;;;;;;;;;4986891;28;20114;-77
2023/01/20 05:46:23;;;;;;;30.98;16.17;;;;;;;;;;4986529;28;20054;-76
2023/01/20 05:48:48;;;;;;;34.60;17.10;;;;;;;;;;4986812;28;20052;-76
2023/01/20 05:51:13;;;;;;;40.97;19.15;;;;;;;;;;4987816;28;20365;-76
2023/01/20 05:53:38;;;;;;;44.15;21.70;;;;;;;;;;4987919;28;20034;-76
2023/01/20 05:56:04;;;;;;;46.85;22.98;;;;;;;;;;4985458;28;20034;-76
2023/01/20 05:58:34;;;;;;;47.28;25.50;;;;;;;;;;4987829;28;20033;-76
2023/01/20 06:01:07;;;;;;;52.42;27.15;;;;;;;;;;4987708;28;20019;-76
2023/01/20 06:03:35;;;;;;;46.75;24.63;;;;;;;;;;4987733;28;20033;-76
2023/01/20 06:06:01;;;;;;;54.08;25.30;;;;;;;;;;4985898;28;20023;-76
2023/01/20 06:08:28;;;;;;;54.15;27.05;;;;;;;;;;4987397;28;20027;-76
2023/01/20 06:10:53;;;;;;;47.60;26.20;;;;;;;;;;4984582;28;20080;-74
2023/01/20 06:13:19;;;;;;;52.45;25.90;;;;;;;;;;4982324;28;20073;-73
2023/01/20 06:15:44;;;;;;;51.90;25.00;;;;;;;;;;4982788;28;20137;-73
2023/01/20 06:18:11;;;;;;;45.13;23.58;;;;;;;;;;4982692;28;20043;-74
2023/01/20 06:20:37;;;;;;;46.85;24.20;;;;;;;;;;4983398;28;20026;-74
2023/01/20 06:23:02;;;;;;;46.00;24.08;;;;;;;;;;4981014;28;20022;-74
2023/01/20 06:25:27;;;;;;;51.75;25.45;;;;;;;;;;4983436;28;20480;-73
2023/01/20 06:27:53;;;;;;;55.92;28.17;;;;;;;;;;4982425;28;20039;-74
2023/01/20 06:30:18;;;;;;;52.63;28.27;;;;;;;;;;4981464;28;20030;-73
2023/01/20 06:32:45;;;;;;;52.80;25.77;;;;;;;;;;4980847;28;20483;-73
2023/01/20 06:35:10;;;;;;;49.60;24.98;;;;;;;;;;4982809;28;20038;-73
2023/01/20 06:37:35;;;;;;;49.45;25.25;;;;;;;;;;4982209;28;20084;-73
2023/01/20 06:40:03;;;;;;;44.72;24.60;;;;;;;;;;4982561;28;20084;-73
2023/01/20 06:42:32;;;;;;;48.83;26.35;;;;;;;;;;4981880;28;20026;-73
2023/01/20 06:44:57;;;;;;;53.30;27.67;;;;;;;;;;4982354;28;20039;-73
2023/01/20 06:47:22;;;;;;;56.35;28.38;;;;;;;;;;4997547;28;20041;-73
2023/01/20 06:49:47;;;;;;;52.17;24.60;;;;;;;;;;5002925;28;20474;-74
2023/01/20 06:52:15;;;;;;;54.50;27.60;;;;;;;;;;5000908;28;20061;-74
2023/01/20 06:54:40;;;;;;;58.50;28.38;;;;;;;;;;5002577;28;20113;-74
2023/01/20 06:57:05;;;;;;;60.50;31.02;;;;;;;;;;5000546;28;20161;-73
2023/01/20 06:59:33;;;;;;;81.78;41.28;;;;;;;;;;5002739;28;20026;-75
2023/01/20 07:01:58;;;;;;;89.00;43.80;;;;;;;;;;5005439;28;20022;-74
2023/01/20 07:04:24;;;;;;;89.93;44.88;;;;;;;;;;5010072;28;20034;-75
2023/01/20 07:06:49;;;;;;;84.18;43.85;;;;;;;;;;5010324;28;20487;-73
2023/01/20 07:09:16;;;;;;;68.68;34.33;;;;;;;;;;5007663;28;20049;-75
2023/01/20 07:11:42;;;;;;;60.50;29.92;;;;;;;;;;5008897;28;20427;-74
2023/01/20 07:14:07;;;;;;;55.47;28.40;;;;;;;;;;5009491;28;20471;-74
2023/01/20 07:16:33;;;;;;;60.97;26.83;;;;;;;;;;5008584;28;20022;-73
2023/01/20 07:18:58;;;;;;;50.78;26.42;;;;;;;;;;5008983;28;20030;-74
2023/01/20 07:21:24;;;;;;;52.50;25.52;;;;;;;;;;5007010;28;20114;-74
2023/01/20 07:23:49;;;;;;;49.75;24.88;;;;;;;;;;5008843;28;20168;-76
2023/01/20 07:26:18;;;;;;;55.05;27.02;;;;;;;;;;5008664;28;20099;-74
2023/01/20 07:28:44;;;;;;;57.35;27.60;;;;;;;;;;5009043;28;20026;-75
2023/01/20 07:31:11;;;;;;;58.55;27.63;;;;;;;;;;5008833;28;20030;-75
2023/01/20 07:33:40;;;;;;;59.92;28.67;;;;;;;;;;5008380;28;20084;-73
2023/01/20 07:36:06;;;;;;;71.90;31.27;;;;;;;;;;5009016;28;20092;-74
2023/01/20 07:38:32;;;;;;;56.33;28.58;;;;;;;;;;5013371;28;20030;-74
2023/01/20 07:40:58;;;;;;;61.50;27.98;;;;;;;;;;5008913;28;20037;-75
2023/01/20 07:43:25;;;;;;;68.80;29.75;;;;;;;;;;5007578;28;20399;-74
2023/01/20 07:45:57;;;;;;;66.57;30.45;;;;;;;;;;5007704;28;20030;-74
2023/01/20 07:48:23;;;;;;;;;;;;;;;;;;5006069;28;20029;-73
2023/01/20 07:50:53;;;;;;;68.70;34.15;;;;;;;;;;5006270;28;19905;-73
2023/01/20 07:53:18;;;;;;;72.45;32.10;;;;;;;;;;5006117;28;20022;-74
2023/01/20 07:55:43;;;;;;;68.82;33.13;;;;;;;;;;5007943;28;20022;-74
2023/01/20 07:58:09;;;;;;;88.05;44.90;;;;;;;;;;5007264;28;20026;-74
2023/01/20 08:00:34;;;;;;;75.85;35.78;;;;;;;;;;5007404;28;20026;-74
2023/01/20 08:02:59;;;;;;;68.22;34.60;;;;;;;;;;5005120;28;20036;-74
2023/01/20 08:05:24;;;;;;;64.13;31.50;;;;;;;;;;5006972;28;20026;-74
2023/01/20 08:07:50;;;;;;;72.05;35.38;;;;;;;;;;5006663;28;20078;-73
2023/01/20 08:10:15;;;;;;;66.43;32.67;;;;;;;;;;5005518;28;20034;-74
2023/01/20 08:12:41;;;;;;;69.95;32.10;;;;;;;;;;5005392;28;20041;-74
2023/01/20 08:15:06;;;;;;;65.10;31.95;;;;;;;;;;5006550;28;20034;-73
2023/01/20 08:17:32;;;;;;;73.50;34.53;;;;;;;;;;5007102;28;20050;-74
2023/01/20 08:19:57;;;;;;;69.10;32.90;;;;;;;;;;5004149;28;20479;-73
2023/01/20 08:22:24;;;;;;;61.58;30.23;;;;;;;;;;5004923;28;20030;-74
2023/01/20 08:24:49;;;;;;;66.35;28.55;;;;;;;;;;5005878;28;20026;-74
2023/01/20 08:27:14;;;;;;;52.55;25.63;;;;;;;;;;5005716;28;20450;-73
2023/01/20 08:29:40;;;;;;;58.20;25.70;;;;;;;;;;5006051;28;20118;-74
2023/01/20 08:32:05;;;;;;;52.25;25.00;;;;;;;;;;5005304;28;20475;-73
2023/01/20 08:34:30;;;;;;;49.88;25.88;;;;;;;;;;5000788;28;20034;-72
2023/01/20 08:36:56;;;;;;;58.70;28.42;;;;;;;;;;5004109;28;20124;-73
2023/01/20 08:39:22;;;;;;;60.45;30.88;;;;;;;;;;5002269;28;20058;-72
2023/01/20 08:41:48;;;;;;;59.92;27.15;;;;;;;;;;5003941;28;20272;-73
2023/01/20 08:44:14;;;;;;;56.85;28.42;;;;;;;;;;5003146;28;20036;-72
2023/01/20 08:46:39;;;;;;;81.35;38.13;;;;;;;;;;5002499;28;20414;-73
2023/01/20 08:49:09;;;;;;;77.82;36.78;;;;;;;;;;5002844;28;20036;-73
2023/01/20 08:51:35;;;;;;;81.80;38.40;;;;;;;;;;5003749;28;20081;-72
2023/01/20 08:54:00;;;;;;;78.70;34.08;;;;;;;;;;5001732;28;20514;-73
2023/01/20 08:56:26;;;;;;;67.03;33.05;;;;;;;;;;5003411;28;20034;-73
2023/01/20 08:58:52;;;;;;;74.07;34.58;;;;;;;;;;4984379;28;20114;-73
2023/01/20 09:01:22;;;;;;;73.20;32.97;;;;;;;;;;5001843;28;20026;-73
2023/01/20 09:03:48;;;;;;;67.28;31.23;;;;;;;;;;5003335;28;20034;-72
2023/01/20 09:06:13;;;;;;;69.68;33.47;;;;;;;;;;5003692;28;20125;-74
2023/01/20 09:08:39;;;;;;;70.47;34.72;;;;;;;;;;5004432;28;20395;-74
2023/01/20 09:11:08;;;;;;;64.75;35.10;;;;;;;;;;5002931;28;20030;-73
2023/01/20 09:13:33;;;;;;;71.53;36.25;;;;;;;;;;5002946;28;20109;-72
2023/01/20 09:15:58;;;;;;;77.53;36.83;;;;;;;;;;5001327;28;20571;-72
2023/01/20 09:18:24;;;;;;;80.47;34.60;;;;;;;;;;4984816;28;20550;-73
2023/01/20 09:20:49;;;;;;;66.18;33.83;;;;;;;;;;5001488;28;20394;-72
2023/01/20 09:23:14;;;;;;;60.33;30.90;;;;;;;;;;5002995;28;20030;-72
2023/01/20 09:25:43;;;;;;;63.55;30.38;;;;;;;;;;5003099;28;24482;-74
2023/01/20 09:28:08;;;;;;;69.68;30.95;;;;;;;;;;4983006;28;20038;-73
2023/01/20 09:30:33;;;;;;;67.78;32.13;;;;;;;;;;4983869;28;20117;-72
2023/01/20 09:33:03;;;;;;;63.83;31.65;;;;;;;;;;4983371;28;20057;-73
2023/01/20 09:35:28;;;;;;;70.30;31.67;;;;;;;;;;4981176;28;20074;-73
2023/01/20 09:43:55;;;;;;;66.22;33.90;;;;;;;;;;4984873;28;20109;-72
2023/01/20 09:46:23;;;;;;;69.05;34.17;;;;;;;;;;4982395;28;20038;-72
2023/01/20 09:54:48;;;;;;;68.72;35.13;;;;;;;;;;4983876;28;20030;-72
2023/01/20 09:57:13;;;;;;;74.07;35.97;;;;;;;;;;4983915;28;20023;-72
2023/01/20 09:59:46;;;;;;;65.43;34.75;;;;;;;;;;4984608;28;20027;-72
2023/01/20 10:02:24;;;;;;;65.05;34.10;;;;;;;;;;4982079;28;20023;-73
2023/01/20 10:05:08;;;;;;;65.25;32.95;;;;;;;;;;4983784;28;20057;-73
2023/01/20 10:07:36;;;;;;;67.57;36.55;;;;;;;;;;4982024;28;20034;-73
2023/01/20 10:10:08;;;;;;;73.10;40.50;;;;;;;;;;4983340;28;20514;-73
2023/01/20 10:12:39;;;;;;;80.90;41.85;;;;;;;;;;4980839;28;20037;-73
2023/01/20 10:15:05;;;;;;;69.78;36.70;;;;;;;;;;4982305;28;20023;-73
2023/01/20 10:17:33;;;;;;;61.95;32.80;;;;;;;;;;4981543;28;20046;-73
2023/01/20 10:20:10;;;;;;;58.10;31.90;;;;;;;;;;4982857;28;20432;-73
2023/01/20 10:22:41;;;;;;;57.63;31.38;;;;;;;;;;4983271;28;20030;-72
2023/01/20 10:25:09;;;;;;;64.55;31.75;;;;;;;;;;4982612;28;20034;-73
2023/01/20 10:27:36;;;;;;;71.43;38.75;;;;;;;;;;4982486;28;20034;-73
2023/01/20 10:30:07;;;;;;;67.78;39.13;;;;;;;;;;4964942;28;20110;-73
2023/01/20 10:32:35;;;;;;;61.17;35.97;;;;;;;;;;4982950;28;20495;-73
2023/01/20 10:35:14;;;;;;;68.40;41.08;;;;;;;;;;4982371;28;20234;-72
2023/01/20 10:37:39;;;;;;;62.67;34.50;;;;;;;;;;4983755;28;20058;-72
2023/01/20 10:40:13;;;;;;;60.83;32.75;;;;;;;;;;4984880;28;20510;-72
2023/01/20 10:42:38;;;;;;;69.65;37.97;;;;;;;;;;4986167;28;20104;-72
2023/01/20 10:45:05;;;;;;;68.35;38.55;;;;;;;;;;4986973;28;20490;-72
2023/01/20 10:47:42;;;;;;;71.13;38.17;;;;;;;;;;5000455;28;20092;-73
2023/01/20 10:50:19;;;;;;;69.28;37.25;;;;;;;;;;5005967;28;20030;-72
2023/01/20 10:52:53;;;;;;;57.25;33.25;;;;;;;;;;5005723;28;20030;-72
2023/01/20 10:55:31;;;;;;;52.45;29.00;;;;;;;;;;5005453;28;20041;-71
2023/01/20 10:58:05;;;;;;;50.22;27.88;;;;;;;;;;5005723;28;20026;-72
2023/01/20 11:00:31;;;;;;;64.43;37.88;;;;;;;;;;5005188;28;20034;-72
2023/01/20 11:02:58;;;;;;;60.25;34.47;;;;;;;;;;5004933;28;20041;-72
2023/01/20 11:05:25;;;;;;;57.15;30.98;;;;;;;;;;5003956;28;20045;-72
2023/01/20 11:07:51;;;;;;;53.80;28.65;;;;;;;;;;5004176;28;20038;-72
2023/01/20 11:10:18;;;;;;;45.50;25.92;;;;;;;;;;5005430;28;20034;-72
2023/01/20 11:12:45;;;;;;;57.10;31.38;;;;;;;;;;5005079;28;20045;-72
2023/01/20 11:15:16;;;;;;;53.72;31.00;;;;;;;;;;5006002;28;20030;-71
2023/01/20 11:17:42;;;;;;;58.33;33.10;;;;;;;;;;5005217;28;20033;-71
2023/01/20 11:20:13;;;;;;;48.58;29.40;;;;;;;;;;5005412;28;20391;-72
2023/01/20 11:22:38;;;;;;;72.53;32.90;;;;;;;;;;5005144;28;20026;-72
2023/01/20 11:25:04;;;;;;;80.75;36.83;;;;;;;;;;5002385;28;20026;-72
2023/01/20 11:27:40;;;;;;;41.28;25.08;;;;;;;;;;4985132;28;20027;-71
2023/01/20 11:30:07;;;;;;;51.22;27.60;;;;;;;;;;4985601;28;20043;-72
2023/01/20 11:32:37;;;;;;;48.20;28.48;;;;;;;;;;4985555;28;20026;-72
2023/01/20 11:35:32;;;;;;;44.72;27.30;;;;;;;;;;4985326;28;20050;-72
2023/01/20 11:37:57;;;;;;;41.47;25.75;;;;;;;;;;4984926;28;20050;-73
2023/01/20 11:40:26;;;;;;;39.38;25.08;;;;;;;;;;4968518;28;20538;-72
2023/01/20 11:42:52;;;;;;;46.83;28.92;;;;;;;;;;4983124;28;20596;-72
2023/01/20 11:45:26;;;;;;;54.90;32.25;;;;;;;;;;4985359;28;20022;-73
2023/01/20 11:48:00;;;;;;;50.53;29.73;;;;;;;;;;5017882;28;20549;-72
2023/01/20 11:50:30;;;;;;;51.75;32.35;;;;;;;;;;5003493;28;20030;-73
2023/01/20 11:53:10;;;;;;;49.33;30.08;;;;;;;;;;5004573;28;20042;-72
2023/01/20 11:55:41;;;;;;;54.97;35.40;;;;;;;;;;5002444;28;20025;-73
2023/01/20 11:58:14;;;;;;;55.90;32.80;;;;;;;;;;5003304;28;20113;-72
2023/01/20 12:00:41;;;;;;;50.45;30.05;;;;;;;;;;5004561;28;20491;-73
2023/01/20 12:03:11;;;;;;;45.75;25.50;;;;;;;;;;5005342;28;22133;-72
2023/01/20 12:05:57;;;;;;;38.95;24.25;;;;;;;;;;5004626;28;20026;-72
2023/01/20 12:08:28;;;;;;;39.17;23.13;;;;;;;;;;5004455;28;20534;-72
2023/01/20 12:10:55;;;;;;;41.42;24.10;;;;;;;;;;5003939;28;20185;-72
2023/01/20 12:13:26;;;;;;;42.17;25.48;;;;;;;;;;5004085;28;20087;-71
2023/01/20 12:15:57;;;;;;;46.40;25.42;;;;;;;;;;5003761;28;20026;-73
2023/01/20 12:18:24;;;;;;;48.58;27.02;;;;;;;;;;5002124;28;20025;-71
2023/01/20 12:20:56;;;;;;;58.25;29.85;;;;;;;;;;5004746;28;20121;-72
2023/01/20 12:23:21;;;;;;;53.83;31.88;;;;;;;;;;5004065;28;20041;-72
2023/01/20 12:25:59;;;;;;;50.08;27.20;;;;;;;;;;4993276;28;20030;-71
2023/01/20 12:28:46;;;;;;;41.83;25.52;;;;;;;;;;4982843;28;20502;-71
2023/01/20 12:31:12;;;;;;;42.15;28.25;;;;;;;;;;4984655;28;20026;-71
2023/01/20 12:33:58;;;;;;;44.28;26.05;;;;;;;;;;4984813;28;20019;-71
2023/01/20 12:36:42;;;;;;;46.63;29.67;;;;;;;;;;4983944;28;20066;-71
2023/01/20 12:39:16;;;;;;;45.15;29.92;;;;;;;;;;4983945;28;20038;-71
2023/01/20 12:42:00;;;;;;;45.63;27.77;;;;;;;;;;4982595;28;20031;-71
2023/01/20 12:44:25;;;;;;;46.35;28.40;;;;;;;;;;4984070;28;20198;-71
2023/01/20 12:47:20;;;;;;;46.13;28.65;;;;;;;;;;4994857;28;20495;-71
2023/01/20 12:50:03;;;;;;;44.17;27.15;;;;;;;;;;5017454;28;20451;-71
2023/01/20 12:52:38;;;;;;;49.33;28.73;;;;;;;;;;5002361;28;20080;-71
2023/01/20 12:55:21;;;;;;;49.28;29.40;;;;;;;;;;5003742;28;20036;-71
2023/01/20 12:57:50;;;;;;;60.88;37.25;;;;;;;;;;5002400;28;20030;-71
2023/01/20 13:00:23;;;;;;;73.00;39.85;;;;;;;;;;5001874;28;20109;-71
2023/01/20 13:02:55;;;;;;;47.90;29.05;;;;;;;;;;4985326;28;20029;-72
2023/01/20 13:05:32;;;;;;;41.65;25.27;;;;;;;;;;5000298;28;20117;-72
2023/01/20 13:08:08;;;;;;;44.10;23.90;;;;;;;;;;5003394;28;20092;-71
2023/01/20 13:10:52;;;;;;;46.67;25.63;;;;;;;;;;5002983;28;20034;-72
2023/01/20 13:13:29;;;;;;;42.67;25.17;;;;;;;;;;5004565;28;20160;-72
2023/01/20 13:16:10;;;;;;;51.75;26.63;;;;;;;;;;5004556;28;20522;-71
2023/01/20 13:18:52;;;;;;;44.90;26.57;;;;;;;;;;5005441;28;20113;-71
2023/01/20 13:21:19;;;;;;;42.90;23.65;;;;;;;;;;5003854;28;20032;-72
2023/01/20 13:23:45;;;;;;;41.72;24.30;;;;;;;;;;5005725;28;20034;-72
2023/01/20 13:26:11;;;;;;;45.40;26.13;;;;;;;;;;5005527;28;20079;-72
2023/01/20 13:28:39;;;;;;;44.08;26.77;;;;;;;;;;5005056;28;20030;-71
2023/01/20 13:31:25;;;;;;;48.13;28.55;;;;;;;;;;5005068;28;20227;-72
2023/01/20 13:33:50;;;;;;;40.17;23.58;;;;;;;;;;5005133;28;20022;-72
2023/01/20 13:36:22;;;;;;;42.47;21.52;;;;;;;;;;5005028;28;20030;-72
2023/01/20 13:38:49;;;;;;;31.27;16.05;;;;;;;;;;5004937;28;20030;-72
2023/01/20 13:41:38;;;;;;;33.83;16.77;;;;;;;;;;5004650;28;20446;-71
2023/01/20 13:44:23;;;;;;;29.80;16.42;;;;;;;;;;5004939;28;20038;-71
2023/01/20 13:46:48;;;;;;;27.33;15.43;;;;;;;;;;5002890;28;20464;-72
2023/01/20 13:49:21;;;;;;;31.77;18.48;;;;;;;;;;5004745;28;20109;-72
2023/01/20 13:51:47;;;;;;;37.58;20.88;;;;;;;;;;5004336;28;20053;-72
2023/01/20 13:54:24;;;;;;;36.75;21.63;;;;;;;;;;5004630;28;20507;-71
2023/01/20 13:56:50;;;;;;;40.17;23.98;;;;;;;;;;5003729;28;20022;-71
2023/01/20 13:59:15;;;;;;;39.22;24.08;;;;;;;;;;5002780;28;20428;-71
2023/01/20 14:01:40;;;;;;;43.67;26.42;;;;;;;;;;5003459;28;20395;-72
2023/01/20 14:04:19;;;;;;;40.53;24.88;;;;;;;;;;5004266;28;20026;-71
2023/01/20 14:06:45;;;;;;;38.58;25.60;;;;;;;;;;5003523;28;20034;-72
2023/01/20 14:09:17;;;;;;;35.13;23.40;;;;;;;;;;5002435;28;20032;-72
2023/01/20 14:11:50;;;;;;;36.38;23.52;;;;;;;;;;5003773;28;20552;-72
2023/01/20 14:14:20;;;;;;;36.17;24.17;;;;;;;;;;5005364;28;20029;-71
2023/01/20 14:16:45;;;;;;;36.70;23.80;;;;;;;;;;5006963;28;20113;-72
2023/01/20 14:19:31;;;;;;;37.95;23.85;;;;;;;;;;5007470;28;20108;-73
2023/01/20 14:22:03;;;;;;;36.47;23.45;;;;;;;;;;5006699;28;20022;-74
2023/01/20 14:24:36;;;;;;;36.67;23.05;;;;;;;;;;4996084;28;20031;-72
2023/01/20 14:27:28;;;;;;;34.58;22.42;;;;;;;;;;4985123;28;20034;-72
2023/01/20 14:29:59;;;;;;;35.92;23.15;;;;;;;;;;4984327;28;20033;-74
2023/01/20 14:32:31;;;;;;;35.90;22.50;;;;;;;;;;4969166;28;20041;-72
2023/01/20 14:34:57;;;;;;;35.45;21.23;;;;;;;;;;4986316;28;20073;-72
2023/01/20 14:37:25;;;;;;;34.33;22.58;;;;;;;;;;4986147;28;20054;-72
2023/01/20 14:39:51;;;;;;;34.65;22.13;;;;;;;;;;4987198;28;20630;-73